createdAt,value
2018-02-12T00:01:10.267Z,87.30
2018-02-12T00:03:40.253Z,87.30
2018-02-12T00:06:06.845Z,87.10
2018-02-12T00:08:38.831Z,87.20
2018-02-12T00:11:05.501Z,87.30
2018-02-12T00:13:32.133Z,87.30
2018-02-12T00:15:58.861Z,87.50
2018-02-12T00:18:25.480Z,87.20
2018-02-12T00:20:52.495Z,87.20
2018-02-12T00:23:19.142Z,87.10
2018-02-12T00:25:46.153Z,87.00
2018-02-12T00:28:12.733Z,87.20
2018-02-12T00:30:39.373Z,87.30
2018-02-12T00:33:29.032Z,87.40
2018-02-12T00:35:55.599Z,87.40
2018-02-12T00:38:22.648Z,87.50
2018-02-12T00:40:54.056Z,87.90
2018-02-12T00:43:20.743Z,87.90
2018-02-12T00:45:47.736Z,88.00
2018-02-12T00:48:14.339Z,87.90
2018-02-12T00:50:41.386Z,87.90
2018-02-12T00:53:08.430Z,87.90
2018-02-12T00:55:35.462Z,88.10
2018-02-12T00:58:02.507Z,87.80
2018-02-12T01:00:29.087Z,88.40
2018-02-12T01:02:55.655Z,88.10
2018-02-12T01:05:22.290Z,88.00
2018-02-12T01:07:48.911Z,88.00
2018-02-12T01:10:15.484Z,88.10
2018-02-12T01:12:42.127Z,88.10
2018-02-12T01:15:08.746Z,88.10
2018-02-12T01:17:35.335Z,88.00
2018-02-12T01:20:01.936Z,88.00
2018-02-12T01:22:28.899Z,88.00
2018-02-12T01:24:55.918Z,87.70
2018-02-12T01:27:22.533Z,87.70
2018-02-12T01:29:49.195Z,87.80
2018-02-12T01:32:16.252Z,88.00
2018-02-12T01:34:42.857Z,88.00
2018-02-12T01:37:09.898Z,88.00
2018-02-12T01:39:36.516Z,88.10
2018-02-12T01:42:03.092Z,87.90
2018-02-12T01:44:29.807Z,88.00
2018-02-12T01:46:56.362Z,88.10
2018-02-12T01:49:22.988Z,88.10
2018-02-12T01:51:49.598Z,88.10
2018-02-12T01:54:16.257Z,88.10
2018-02-12T01:56:42.867Z,88.30
2018-02-12T01:59:10.229Z,88.10
2018-02-12T02:01:36.826Z,88.20
2018-02-12T02:04:03.454Z,88.40
2018-02-12T02:06:30.460Z,88.40
2018-02-12T02:08:57.064Z,88.40
2018-02-12T02:11:23.697Z,88.30
2018-02-12T02:13:50.341Z,88.40
2018-02-12T02:16:16.920Z,88.50
2018-02-12T02:18:43.521Z,88.40
2018-02-12T02:21:10.163Z,88.50
2018-02-12T02:23:37.163Z,88.30
2018-02-12T02:26:04.128Z,88.40
2018-02-12T02:31:23.365Z,88.50
2018-02-12T02:33:49.946Z,88.60
2018-02-12T02:36:16.575Z,88.70
2018-02-12T02:38:54.763Z,88.70
2018-02-12T02:41:21.378Z,88.60
2018-02-12T02:43:48.007Z,88.60
2018-02-12T02:46:17.955Z,88.50
2018-02-12T02:48:44.557Z,88.70
2018-02-12T02:51:11.569Z,88.50
2018-02-12T02:53:42.647Z,88.80
2018-02-12T02:56:09.651Z,88.70
2018-02-12T02:58:36.319Z,88.70
2018-02-12T03:01:03.322Z,88.60
2018-02-12T03:03:29.898Z,88.80
2018-02-12T03:06:00.373Z,88.10
2018-02-12T03:08:27.441Z,88.40
2018-02-12T03:10:54.026Z,88.40
2018-02-12T03:13:21.045Z,88.40
2018-02-12T03:15:48.058Z,88.80
2018-02-12T03:18:14.631Z,88.50
2018-02-12T03:20:44.483Z,88.50
2018-02-12T03:23:11.425Z,88.40
2018-02-12T03:25:38.003Z,88.40
2018-02-12T03:28:04.587Z,88.60
2018-02-12T03:30:31.618Z,88.60
2018-02-12T03:32:58.210Z,88.60
2018-02-12T03:35:24.798Z,88.50
2018-02-12T03:37:51.767Z,88.40
2018-02-12T03:40:18.378Z,88.40
2018-02-12T03:42:44.981Z,88.50
2018-02-12T03:45:11.643Z,88.60
2018-02-12T03:47:38.296Z,88.40
2018-02-12T03:50:04.944Z,88.40
2018-02-12T03:52:31.966Z,88.40
2018-02-12T03:54:58.618Z,88.30
2018-02-12T03:57:25.281Z,88.30
2018-02-12T03:59:51.890Z,88.50
2018-02-12T04:02:18.474Z,88.50
2018-02-12T04:04:45.164Z,88.30
2018-02-12T04:07:11.754Z,88.60
2018-02-12T04:09:38.355Z,88.40
2018-02-12T04:12:05.341Z,88.80
2018-02-12T04:14:31.918Z,88.50
2018-02-12T04:16:58.581Z,88.20
2018-02-12T04:19:25.598Z,88.70
2018-02-12T04:22:12.249Z,88.60
2018-02-12T04:24:38.887Z,88.80
2018-02-12T04:27:05.488Z,89.10
2018-02-12T04:29:32.176Z,89.00
2018-02-12T04:31:58.786Z,88.80
2018-02-12T04:34:25.758Z,88.70
2018-02-12T04:37:09.179Z,88.90
2018-02-12T04:39:35.827Z,88.90
2018-02-12T04:42:02.487Z,89.10
2018-02-12T04:44:29.066Z,89.00
2018-02-12T04:46:56.147Z,88.90
2018-02-12T04:49:26.416Z,89.10
2018-02-12T04:51:53.049Z,89.30
2018-02-12T04:54:19.744Z,89.40
2018-02-12T04:56:46.384Z,89.40
2018-02-12T04:59:12.997Z,89.30
2018-02-12T05:01:40.021Z,89.00
2018-02-12T05:04:06.649Z,89.00
2018-02-12T05:06:33.266Z,88.90
2018-02-12T05:08:59.917Z,88.90
2018-02-12T05:11:26.493Z,89.10
2018-02-12T05:13:57.007Z,88.90
2018-02-12T05:16:23.643Z,89.00
2018-02-12T05:18:50.224Z,89.10
2018-02-12T05:21:16.823Z,89.30
2018-02-12T05:23:43.764Z,89.10
2018-02-12T05:26:13.391Z,89.20
2018-02-12T05:28:40.006Z,89.20
2018-02-12T05:31:06.644Z,89.10
2018-02-12T05:33:33.213Z,89.00
2018-02-12T05:36:00.248Z,88.80
2018-02-12T05:38:34.511Z,89.10
2018-02-12T05:41:01.190Z,89.40
2018-02-12T05:43:27.798Z,89.70
2018-02-12T05:45:58.889Z,89.30
2018-02-12T05:48:25.523Z,88.90
2018-02-12T05:50:52.478Z,88.80
2018-02-12T05:53:23.230Z,88.60
2018-02-12T05:55:49.899Z,88.60
2018-02-12T05:58:16.487Z,88.90
2018-02-12T06:00:43.484Z,89.20
2018-02-12T06:03:10.465Z,89.40
2018-02-12T06:05:37.103Z,89.20
2018-02-12T06:08:03.773Z,89.40
2018-02-12T06:13:23.371Z,90.00
2018-02-12T06:15:59.799Z,89.50
2018-02-12T06:18:26.484Z,89.10
2018-02-12T06:20:53.069Z,89.50
2018-02-12T06:23:19.636Z,89.20
2018-02-12T06:25:47.046Z,89.30
2018-02-12T06:28:13.630Z,88.80
2018-02-12T06:30:40.220Z,88.40
2018-02-12T06:33:06.863Z,89.10
2018-02-12T06:35:33.480Z,88.90
2018-02-12T06:38:00.066Z,89.20
2018-02-12T06:40:27.093Z,88.70
2018-02-12T06:43:10.766Z,88.80
2018-02-12T06:45:37.422Z,89.20
2018-02-12T06:48:04.974Z,89.80
2018-02-12T06:50:36.004Z,89.50
2018-02-12T06:53:03.089Z,90.60
2018-02-12T06:55:32.758Z,90.70
2018-02-12T06:57:59.762Z,90.50
2018-02-12T07:00:26.678Z,90.50
2018-02-12T07:02:53.281Z,89.70
2018-02-12T07:05:20.242Z,89.90
2018-02-12T07:07:52.388Z,90.00
2018-02-12T07:10:19.389Z,89.70
2018-02-12T07:12:46.021Z,89.60
2018-02-12T07:15:12.635Z,89.60
2018-02-12T07:17:39.227Z,89.50
2018-02-12T07:20:05.942Z,89.60
2018-02-12T07:22:32.605Z,89.90
2018-02-12T07:24:59.225Z,89.90
2018-02-12T07:27:25.826Z,89.30
2018-02-12T07:29:52.442Z,89.40
2018-02-12T07:32:30.596Z,89.70
2018-02-12T07:34:57.215Z,89.70
2018-02-12T07:37:23.809Z,90.00
2018-02-12T07:39:50.794Z,89.80
2018-02-12T07:42:17.398Z,89.70
2018-02-12T07:44:44.473Z,89.70
2018-02-12T07:47:11.082Z,89.60
2018-02-12T07:49:37.697Z,89.50
2018-02-12T07:52:04.302Z,89.80
2018-02-12T07:54:30.889Z,90.00
2018-02-12T07:56:57.934Z,89.80
2018-02-12T07:59:24.616Z,90.10
2018-02-12T08:01:51.224Z,89.80
2018-02-12T08:04:17.891Z,89.90
2018-02-12T08:06:44.493Z,89.80
2018-02-12T08:09:11.103Z,89.70
2018-02-12T08:11:38.163Z,89.70
2018-02-12T08:14:04.778Z,89.90
2018-02-12T08:16:31.366Z,89.80
2018-02-12T08:18:58.461Z,89.90
2018-02-12T08:21:25.045Z,90.20
2018-02-12T08:23:51.641Z,89.70
2018-02-12T08:26:18.301Z,89.90
2018-02-12T08:28:44.918Z,90.00
2018-02-12T08:31:11.803Z,90.10
2018-02-12T08:33:38.475Z,90.10
2018-02-12T08:36:05.166Z,89.80
2018-02-12T08:38:31.799Z,89.70
2018-02-12T08:40:58.375Z,89.80
2018-02-12T08:43:25.390Z,89.80
2018-02-12T08:45:51.982Z,89.80
2018-02-12T08:48:18.623Z,90.10
2018-02-12T08:50:45.199Z,89.90
2018-02-12T08:53:11.759Z,89.90
2018-02-12T08:55:38.808Z,89.60
2018-02-12T08:58:05.814Z,90.30
2018-02-12T09:00:32.419Z,90.20
2018-02-12T09:02:59.035Z,90.50
2018-02-12T09:05:26.074Z,89.90
2018-02-12T09:07:52.673Z,89.80
2018-02-12T09:10:19.337Z,89.70
2018-02-12T09:12:45.996Z,89.70
2018-02-12T09:15:13.001Z,89.70
2018-02-12T09:17:39.622Z,89.70
2018-02-12T09:20:06.519Z,89.80
2018-02-12T09:22:33.505Z,89.70
2018-02-12T09:25:00.132Z,89.80
2018-02-12T09:27:26.734Z,89.80
2018-02-12T09:30:00.406Z,90.00
2018-02-12T09:32:27.036Z,89.90
2018-02-12T09:34:53.626Z,89.50
2018-02-12T09:37:20.618Z,89.70
2018-02-12T09:39:47.317Z,89.60
2018-02-12T09:42:14.370Z,89.70
2018-02-12T09:44:41.044Z,89.30
2018-02-12T09:47:08.115Z,89.60
2018-02-12T09:49:34.742Z,89.40
2018-02-12T09:52:01.349Z,89.00
2018-02-12T09:54:27.951Z,88.40
2018-02-12T09:56:55.926Z,89.20
2018-02-12T09:59:23.294Z,88.70
2018-02-12T10:01:50.298Z,89.00
2018-02-12T10:04:16.991Z,88.70
2018-02-12T10:06:43.970Z,88.60
2018-02-12T10:09:10.538Z,88.20
2018-02-12T10:11:37.119Z,86.70
2018-02-12T10:14:03.751Z,87.90
2018-02-12T10:16:30.330Z,87.70
2018-02-12T10:18:56.932Z,88.00
2018-02-12T10:21:43.345Z,87.30
2018-02-12T10:24:09.975Z,86.60
2018-02-12T10:26:36.569Z,86.50
2018-02-12T10:29:03.256Z,86.50
2018-02-12T10:31:29.882Z,86.50
2018-02-12T10:33:56.473Z,86.10
2018-02-12T10:36:23.142Z,85.90
2018-02-12T10:38:50.100Z,86.10
2018-02-12T10:41:26.751Z,85.50
2018-02-12T10:43:53.756Z,85.30
2018-02-12T10:46:20.340Z,84.70
2018-02-12T10:48:47.026Z,83.50
2018-02-12T10:51:13.632Z,83.90
2018-02-12T10:53:40.238Z,83.60
2018-02-12T10:56:06.843Z,83.70
2018-02-12T10:58:33.541Z,83.40
2018-02-12T11:01:00.210Z,83.10
2018-02-12T11:03:26.833Z,82.80
2018-02-12T11:05:53.464Z,82.70
2018-02-12T11:08:20.491Z,82.80
2018-02-12T11:10:47.081Z,83.50
2018-02-12T11:13:13.641Z,82.80
2018-02-12T11:15:40.312Z,82.10
2018-02-12T11:18:07.343Z,82.80
2018-02-12T11:20:34.386Z,83.00
2018-02-12T11:23:01.378Z,83.40
2018-02-12T11:25:28.930Z,83.80
2018-02-12T11:27:55.518Z,83.20
2018-02-12T11:30:22.486Z,83.50
2018-02-12T11:32:49.522Z,83.10
2018-02-12T11:35:16.117Z,82.80
2018-02-12T11:37:42.739Z,83.00
2018-02-12T11:40:09.364Z,83.20
2018-02-12T11:42:35.998Z,82.70
2018-02-12T11:45:12.838Z,83.10
2018-02-12T11:47:39.399Z,82.60
2018-02-12T11:50:06.372Z,82.60
2018-02-12T11:52:33.044Z,82.20
2018-02-12T11:54:59.688Z,81.90
2018-02-12T11:57:26.271Z,81.50
2018-02-12T11:59:52.912Z,81.00
2018-02-12T12:02:19.472Z,80.90
2018-02-12T12:04:56.774Z,80.00
2018-02-12T12:07:23.355Z,80.90
2018-02-12T12:09:50.307Z,80.20
2018-02-12T12:12:22.243Z,79.30
2018-02-12T12:14:48.906Z,79.40
2018-02-12T12:17:15.922Z,78.00
2018-02-12T12:19:42.862Z,76.50
2018-02-12T12:22:09.446Z,76.60
2018-02-12T12:24:36.050Z,76.00
2018-02-12T12:27:02.705Z,75.50
2018-02-12T12:29:29.686Z,75.00
2018-02-12T12:31:57.316Z,74.80
2018-02-12T12:34:24.324Z,74.30
2018-02-12T12:36:50.885Z,74.80
2018-02-12T12:39:17.586Z,74.50
2018-02-12T12:41:44.175Z,74.50
2018-02-12T12:44:11.175Z,73.90
2018-02-12T12:46:38.179Z,74.10
2018-02-12T12:49:05.187Z,74.20
2018-02-12T12:51:31.822Z,75.50
2018-02-12T12:54:12.914Z,74.70
2018-02-12T12:56:39.516Z,74.70
2018-02-12T12:59:06.114Z,74.20
2018-02-12T13:01:33.184Z,74.40
2018-02-12T13:03:59.802Z,74.50
2018-02-12T13:06:26.804Z,75.30
2018-02-12T13:08:53.504Z,75.70
2018-02-12T13:11:20.140Z,75.30
2018-02-12T13:13:46.826Z,75.10
2018-02-12T13:16:13.458Z,75.70
2018-02-12T13:18:40.205Z,75.40
2018-02-12T13:21:06.778Z,75.70
2018-02-12T13:23:38.762Z,75.90
2018-02-12T13:26:05.394Z,75.70
2018-02-12T13:28:32.036Z,76.10
2018-02-12T13:30:58.629Z,75.90
2018-02-12T13:33:30.208Z,75.70
2018-02-12T13:35:57.207Z,75.10
2018-02-12T13:38:24.184Z,74.80
2018-02-12T13:40:50.832Z,74.10
2018-02-12T13:46:34.018Z,74.30
2018-02-12T13:49:01.074Z,72.40
2018-02-12T13:51:27.659Z,71.60
2018-02-12T13:53:54.240Z,72.00
2018-02-12T13:56:31.359Z,70.50
2018-02-12T14:01:51.000Z,69.20
2018-02-12T14:04:17.624Z,68.50
2018-02-12T14:07:03.347Z,67.90
2018-02-12T14:12:35.474Z,68.40
2018-02-12T14:15:02.063Z,68.00
2018-02-12T14:17:28.666Z,68.20
2018-02-12T14:19:55.749Z,69.90
2018-02-12T14:22:22.344Z,70.20
2018-02-12T14:24:48.971Z,68.50
2018-02-12T14:27:22.364Z,67.80
2018-02-12T14:29:48.983Z,67.60
2018-02-12T14:32:22.634Z,67.10
2018-02-12T14:34:49.644Z,67.30
2018-02-12T14:37:21.964Z,67.40
2018-02-12T14:39:48.569Z,68.00
2018-02-12T14:42:32.920Z,68.10
2018-02-12T14:44:59.549Z,67.30
2018-02-12T14:47:33.412Z,67.80
2018-02-12T14:49:59.991Z,67.90
2018-02-12T14:52:47.483Z,68.10
2018-02-12T14:55:24.962Z,67.90
2018-02-12T14:57:51.555Z,68.00
2018-02-12T15:00:30.728Z,67.70
2018-02-12T15:02:57.308Z,68.00
2018-02-12T15:05:23.933Z,69.80
2018-02-12T15:07:57.024Z,68.70
2018-02-12T15:10:23.647Z,68.90
2018-02-12T15:13:03.295Z,69.20
2018-02-12T15:15:29.901Z,68.60
2018-02-12T15:17:56.919Z,69.20
2018-02-12T15:20:23.568Z,70.00
2018-02-12T15:22:51.105Z,71.00
2018-02-12T15:25:17.763Z,70.70
2018-02-12T15:27:44.822Z,71.70
2018-02-12T15:30:11.783Z,72.00
2018-02-12T15:32:43.065Z,71.70
2018-02-12T15:35:09.707Z,72.60
2018-02-12T15:37:36.345Z,73.20
2018-02-12T15:40:13.232Z,73.40
2018-02-12T15:42:39.852Z,73.20
2018-02-12T15:45:06.462Z,73.90
2018-02-12T15:47:33.039Z,73.80
2018-02-12T15:50:00.171Z,73.30
2018-02-12T15:52:26.839Z,74.10
2018-02-12T15:55:01.256Z,73.90
2018-02-12T15:57:27.858Z,74.20
2018-02-12T15:59:54.555Z,74.20
2018-02-12T16:02:21.134Z,74.30
2018-02-12T16:04:48.636Z,73.70
2018-02-12T16:07:15.291Z,73.40
2018-02-12T16:09:41.938Z,74.00
2018-02-12T16:12:08.985Z,74.90
2018-02-12T16:14:36.833Z,74.90
2018-02-12T16:17:03.394Z,74.30
2018-02-12T16:19:30.366Z,75.30
2018-02-12T16:21:57.677Z,75.70
2018-02-12T16:24:24.372Z,75.40
2018-02-12T16:26:50.962Z,75.00
2018-02-12T16:29:18.275Z,76.20
2018-02-12T16:31:44.893Z,76.10
2018-02-12T16:34:25.295Z,76.60
2018-02-12T16:36:51.931Z,75.50
2018-02-12T16:39:18.562Z,75.00
2018-02-12T16:41:45.187Z,74.70
2018-02-12T16:44:12.098Z,75.20
2018-02-12T16:46:38.694Z,75.10
2018-02-12T16:49:05.426Z,75.10
2018-02-12T16:51:32.144Z,75.80
2018-02-12T16:56:54.475Z,75.90
2018-02-12T16:59:21.131Z,75.80
2018-02-12T17:01:47.746Z,76.00
2018-02-12T17:04:14.398Z,76.40
2018-02-12T17:06:41.064Z,76.50
2018-02-12T17:09:10.860Z,76.20
2018-02-12T17:11:37.429Z,77.00
2018-02-12T17:14:06.130Z,77.10
2018-02-12T17:16:32.724Z,77.70
2018-02-12T17:18:59.351Z,76.90
2018-02-12T17:21:26.015Z,76.30
2018-02-12T17:23:52.663Z,76.80
2018-02-12T17:26:19.680Z,77.50
2018-02-12T17:28:46.278Z,77.40
2018-02-12T17:31:13.285Z,77.40
2018-02-12T17:33:39.950Z,77.60
2018-02-12T17:36:07.004Z,77.10
2018-02-12T17:38:45.354Z,77.60
2018-02-12T17:41:11.959Z,77.30
2018-02-12T17:43:38.969Z,77.70
2018-02-12T17:46:08.659Z,77.90
2018-02-12T17:48:38.416Z,77.80
2018-02-12T17:51:05.011Z,77.90
2018-02-12T17:53:31.608Z,78.50
2018-02-12T17:55:58.246Z,79.60
2018-02-12T17:58:25.310Z,79.30
2018-02-12T18:00:51.912Z,79.10
2018-02-12T18:03:19.049Z,79.10
2018-02-12T18:05:45.724Z,79.10
2018-02-12T18:08:12.741Z,79.80
2018-02-12T18:10:54.770Z,78.50
2018-02-12T18:13:21.763Z,78.70
2018-02-12T18:15:48.339Z,79.10
2018-02-12T18:18:15.392Z,78.80
2018-02-12T18:20:42.084Z,78.50
2018-02-12T18:23:08.742Z,79.20
2018-02-12T18:25:35.460Z,79.10
2018-02-12T18:28:09.176Z,79.40
2018-02-12T18:30:37.768Z,78.90
2018-02-12T18:33:10.117Z,79.70
2018-02-12T18:35:36.702Z,79.80
2018-02-12T18:38:04.063Z,80.00
2018-02-12T18:40:31.112Z,80.30
2018-02-12T18:42:58.063Z,81.20
2018-02-12T18:45:25.113Z,80.70
2018-02-12T18:47:53.180Z,80.80
2018-02-12T18:50:34.014Z,82.00
2018-02-12T18:53:00.646Z,81.30
2018-02-12T18:55:29.262Z,82.10
2018-02-12T18:58:09.973Z,80.90
2018-02-12T19:00:36.579Z,81.70
2018-02-12T19:03:03.574Z,81.80
2018-02-12T19:05:30.168Z,81.40
2018-02-12T19:08:02.419Z,82.10
2018-02-12T19:10:36.946Z,82.10
2018-02-12T19:13:03.987Z,81.60
2018-02-12T19:15:30.632Z,82.00
2018-02-12T19:17:59.255Z,82.60
2018-02-12T19:20:25.914Z,82.20
2018-02-12T19:22:52.547Z,83.40
2018-02-12T19:25:21.139Z,82.90
2018-02-12T19:27:48.125Z,82.70
2018-02-12T19:30:19.496Z,82.90
2018-02-12T19:32:46.084Z,83.10
2018-02-12T19:35:12.723Z,82.80
2018-02-12T19:37:49.344Z,83.30
2018-02-12T19:40:24.024Z,82.90
2018-02-12T19:43:01.149Z,83.10
2018-02-12T19:45:32.644Z,82.90
2018-02-12T19:47:59.365Z,82.90
2018-02-12T19:50:26.010Z,82.90
2018-02-12T19:52:52.718Z,83.30
2018-02-12T19:55:23.753Z,83.30
2018-02-12T19:57:50.742Z,84.00
2018-02-12T20:00:21.096Z,83.90
2018-02-12T20:02:47.827Z,83.60
2018-02-12T20:05:14.447Z,84.10
2018-02-12T20:07:41.129Z,83.80
2018-02-12T20:10:08.401Z,83.80
2018-02-12T20:12:38.273Z,83.60
2018-02-12T20:15:05.975Z,83.50
2018-02-12T20:17:32.582Z,84.20
2018-02-12T20:19:59.174Z,83.80
2018-02-12T20:22:25.883Z,83.20
2018-02-12T20:24:52.455Z,83.20
2018-02-12T20:27:19.134Z,84.00
2018-02-12T20:29:51.119Z,84.10
2018-02-12T20:32:18.138Z,83.60
2018-02-12T20:34:44.747Z,83.90
2018-02-12T20:37:11.567Z,84.30
2018-02-12T20:39:38.193Z,84.00
2018-02-12T20:42:23.886Z,84.20
2018-02-12T20:44:50.531Z,84.20
2018-02-12T20:47:17.115Z,84.90
2018-02-12T20:49:58.845Z,83.90
2018-02-12T20:52:25.576Z,84.60
2018-02-12T20:54:52.570Z,84.10
2018-02-12T20:57:19.172Z,84.00
2018-02-12T20:59:50.378Z,83.90
2018-02-12T21:05:10.342Z,84.30
2018-02-12T21:07:37.096Z,84.50
2018-02-12T21:10:03.686Z,83.60
2018-02-12T21:12:30.734Z,84.40
2018-02-12T21:17:51.031Z,84.90
2018-02-12T21:20:17.632Z,84.80
2018-02-12T21:22:44.247Z,85.00
2018-02-12T21:25:10.946Z,85.20
2018-02-12T21:27:39.544Z,84.80
2018-02-12T21:30:06.193Z,85.00
2018-02-12T21:32:33.182Z,84.70
2018-02-12T21:35:05.185Z,85.40
2018-02-12T21:37:32.256Z,85.60
2018-02-12T21:39:58.871Z,84.70
2018-02-12T21:42:25.573Z,84.80
2018-02-12T21:44:52.173Z,84.50
2018-02-12T21:50:14.915Z,85.10
2018-02-12T21:52:41.617Z,85.00
2018-02-12T21:55:08.234Z,84.80
2018-02-12T21:57:34.883Z,85.00
2018-02-12T22:00:01.686Z,84.90
2018-02-12T22:02:28.332Z,83.80
2018-02-12T22:04:54.907Z,84.50
2018-02-12T22:07:21.538Z,85.20
2018-02-12T22:09:48.256Z,85.40
2018-02-12T22:12:14.855Z,85.40
2018-02-12T22:14:48.170Z,85.10
2018-02-12T22:17:14.790Z,85.00
2018-02-12T22:19:41.846Z,85.00
2018-02-12T22:22:08.819Z,84.90
2018-02-12T22:24:35.467Z,84.50
2018-02-12T22:27:02.177Z,84.80
2018-02-12T22:29:28.954Z,84.80
2018-02-12T22:31:55.953Z,84.60
2018-02-12T22:34:31.004Z,85.10
2018-02-12T22:36:57.734Z,85.10
2018-02-12T22:39:24.905Z,85.50
2018-02-12T22:41:51.519Z,85.30
2018-02-12T22:44:18.166Z,85.30
2018-02-12T22:46:45.139Z,85.50
2018-02-12T22:49:28.828Z,84.80
2018-02-12T22:51:55.447Z,85.40
2018-02-12T22:54:37.420Z,85.50
2018-02-12T22:57:04.041Z,86.10
2018-02-12T22:59:30.644Z,85.30
2018-02-12T23:01:57.958Z,85.30
2018-02-12T23:04:24.557Z,85.20
2018-02-12T23:06:52.637Z,85.50
2018-02-12T23:09:19.578Z,85.60
2018-02-12T23:11:46.182Z,85.70
2018-02-12T23:14:26.998Z,85.50
2018-02-12T23:16:59.319Z,85.10
2018-02-12T23:19:25.925Z,85.20
2018-02-12T23:21:52.580Z,85.30
2018-02-12T23:24:31.221Z,85.10
2018-02-12T23:26:57.885Z,85.50
2018-02-12T23:29:24.509Z,85.60
2018-02-12T23:31:51.560Z,85.70
2018-02-12T23:34:18.626Z,85.70
2018-02-12T23:36:46.175Z,85.00
2018-02-12T23:39:12.825Z,85.40
2018-02-12T23:41:39.539Z,85.50
2018-02-12T23:44:06.542Z,85.40
2018-02-12T23:46:33.156Z,85.60
2018-02-12T23:48:59.797Z,85.30
2018-02-12T23:51:46.497Z,85.20
2018-02-12T23:54:25.191Z,85.30
2018-02-12T23:56:52.215Z,85.60
2018-02-12T23:59:18.814Z,85.60
